createdAt,value
2018-04-29T00:00:50.057Z,86.61
2018-04-29T00:01:50.728Z,86.65
2018-04-29T00:02:51.401Z,86.61
2018-04-29T00:03:52.072Z,86.55
2018-04-29T00:04:52.750Z,86.70
2018-04-29T00:05:53.421Z,87.32
2018-04-29T00:06:54.098Z,87.08
2018-04-29T00:07:54.770Z,87.37
2018-04-29T00:08:55.442Z,87.47
2018-04-29T00:09:56.114Z,88.13
2018-04-29T00:10:56.786Z,87.85
2018-04-29T00:11:57.463Z,87.76
2018-04-29T00:12:58.139Z,88.13
2018-04-29T00:13:58.814Z,88.52
2018-04-29T00:14:59.489Z,88.23
2018-04-29T00:16:00.165Z,88.04
2018-04-29T00:17:00.846Z,88.23
2018-04-29T00:18:01.514Z,88.13
2018-04-29T00:19:02.201Z,88.43
2018-04-29T00:20:02.874Z,88.52
2018-04-29T00:21:03.544Z,89.00
2018-04-29T00:22:04.217Z,88.62
2018-04-29T00:23:04.889Z,88.81
2018-04-29T00:24:05.562Z,89.00
2018-04-29T00:25:06.237Z,88.81
2018-04-29T00:26:06.909Z,88.95
2018-04-29T00:27:07.583Z,89.15
2018-04-29T00:28:08.253Z,89.62
2018-04-29T00:29:08.935Z,89.91
2018-04-29T00:30:09.607Z,89.91
2018-04-29T00:31:10.278Z,89.91
2018-04-29T00:32:10.952Z,90.48
2018-04-29T00:33:11.621Z,90.39
2018-04-29T00:34:12.300Z,90.30
2018-04-29T00:35:12.974Z,90.20
2018-04-29T00:36:13.724Z,90.48
2018-04-29T00:37:14.319Z,90.67
2018-04-29T00:38:14.991Z,91.16
2018-04-29T00:39:15.671Z,91.06
2018-04-29T00:40:16.349Z,91.44
2018-04-29T00:41:17.019Z,91.25
2018-04-29T00:42:17.695Z,91.73
2018-04-29T00:43:18.367Z,91.44
2018-04-29T00:44:19.040Z,91.44
2018-04-29T00:45:19.717Z,91.44
2018-04-29T00:46:20.388Z,91.78
2018-04-29T00:47:21.062Z,92.30
2018-04-29T00:48:21.738Z,92.02
2018-04-29T00:49:22.413Z,92.02
2018-04-29T00:50:23.085Z,91.97
2018-04-29T00:51:23.765Z,92.35
2018-04-29T00:52:24.440Z,92.25
2018-04-29T00:53:25.118Z,92.16
2018-04-29T00:54:25.790Z,92.64
2018-04-29T00:55:26.464Z,92.64
2018-04-29T00:56:27.135Z,92.83
2018-04-29T00:57:27.808Z,92.93
2018-04-29T00:58:28.482Z,92.83
2018-04-29T00:59:29.154Z,92.54
2018-04-29T01:00:29.836Z,92.64
2018-04-29T01:01:30.513Z,93.12
2018-04-29T01:02:31.185Z,93.50
2018-04-29T01:03:31.879Z,93.21
2018-04-29T01:04:32.555Z,93.12
2018-04-29T01:05:33.223Z,93.79
2018-04-29T01:06:33.893Z,93.40
2018-04-29T01:07:34.575Z,93.79
2018-04-29T01:08:35.245Z,94.26
2018-04-29T01:09:35.919Z,94.07
2018-04-29T01:10:36.605Z,93.98
2018-04-29T01:11:37.273Z,94.26
2018-04-29T01:12:37.946Z,94.55
2018-04-29T01:13:38.619Z,94.65
2018-04-29T01:14:39.295Z,94.93
2018-04-29T01:15:39.974Z,94.74
2018-04-29T01:16:40.647Z,94.93
2018-04-29T01:17:41.319Z,94.84
2018-04-29T01:18:41.990Z,94.93
2018-04-29T01:19:42.698Z,94.84
2018-04-29T01:20:43.338Z,94.84
2018-04-29T01:21:44.012Z,94.84
2018-04-29T01:22:44.681Z,95.03
2018-04-29T01:23:45.354Z,94.74
2018-04-29T01:24:46.026Z,94.84
2018-04-29T01:25:46.699Z,94.74
2018-04-29T01:26:47.376Z,94.93
2018-04-29T01:27:48.044Z,94.74
2018-04-29T01:28:48.717Z,94.84
2018-04-29T01:29:49.388Z,94.93
2018-04-29T01:30:50.064Z,94.70
2018-04-29T01:31:50.740Z,94.98
2018-04-29T01:32:51.407Z,94.93
2018-04-29T01:33:52.080Z,94.79
2018-04-29T01:34:52.756Z,94.98
2018-04-29T01:35:53.428Z,94.89
2018-04-29T01:36:54.107Z,94.89
2018-04-29T01:37:54.781Z,94.60
2018-04-29T01:38:55.458Z,94.79
2018-04-29T01:39:56.130Z,94.79
2018-04-29T01:40:56.803Z,95.07
2018-04-29T01:41:57.479Z,94.79
2018-04-29T01:42:58.152Z,94.79
2018-04-29T01:43:58.826Z,94.70
2018-04-29T01:44:59.497Z,94.98
2018-04-29T01:46:00.168Z,94.79
2018-04-29T01:47:00.839Z,94.89
2018-04-29T01:48:01.511Z,94.41
2018-04-29T01:49:02.190Z,94.51
2018-04-29T01:50:02.865Z,94.41
2018-04-29T01:51:03.539Z,93.93
2018-04-29T01:52:04.212Z,93.74
2018-04-29T01:53:04.881Z,93.93
2018-04-29T01:54:05.556Z,93.26
2018-04-29T01:55:06.228Z,93.26
2018-04-29T01:56:06.900Z,92.69
2018-04-29T01:57:07.567Z,92.97
2018-04-29T01:58:08.245Z,92.50
2018-04-29T01:59:08.917Z,92.69
2018-04-29T02:00:09.600Z,92.59
2018-04-29T02:01:10.278Z,92.50
2018-04-29T02:02:10.954Z,92.11
2018-04-29T02:03:11.630Z,92.11
2018-04-29T02:04:12.297Z,92.40
2018-04-29T02:05:12.972Z,91.74
2018-04-29T02:06:13.638Z,92.11
2018-04-29T02:07:14.313Z,91.83
2018-04-29T02:08:14.985Z,91.45
2018-04-29T02:09:15.651Z,91.54
2018-04-29T02:10:16.324Z,91.83
2018-04-29T02:11:16.998Z,91.35
2018-04-29T02:12:17.666Z,90.59
2018-04-29T02:13:18.340Z,90.59
2018-04-29T02:14:19.013Z,90.68
2018-04-29T02:15:19.683Z,90.39
2018-04-29T02:16:20.355Z,90.20
2018-04-29T02:17:21.027Z,90.11
2018-04-29T02:18:21.700Z,90.20
2018-04-29T02:19:22.377Z,89.25
2018-04-29T02:20:23.041Z,88.68
2018-04-29T02:21:23.714Z,89.06
2018-04-29T02:22:24.388Z,89.06
2018-04-29T02:23:25.058Z,88.77
2018-04-29T02:24:25.730Z,88.68
2018-04-29T02:25:26.405Z,88.68
2018-04-29T02:26:27.079Z,88.58
2018-04-29T02:27:27.746Z,88.68
2018-04-29T02:28:28.417Z,89.06
2018-04-29T02:29:29.092Z,88.39
2018-04-29T02:30:29.763Z,88.96
2018-04-29T02:31:30.503Z,88.58
2018-04-29T02:32:31.122Z,88.77
2018-04-29T02:33:31.792Z,88.39
2018-04-29T02:34:32.470Z,88.58
2018-04-29T02:35:33.143Z,88.58
2018-04-29T02:36:33.821Z,88.20
2018-04-29T02:37:34.495Z,88.39
2018-04-29T02:38:35.167Z,88.48
2018-04-29T02:39:35.839Z,88.39
2018-04-29T02:40:36.516Z,88.29
2018-04-29T02:41:37.183Z,88.20
2018-04-29T02:42:37.856Z,88.87
2018-04-29T02:43:38.531Z,88.77
2018-04-29T02:44:39.198Z,88.39
2018-04-29T02:45:39.872Z,88.58
2018-04-29T02:46:40.547Z,88.44
2018-04-29T02:47:41.219Z,88.87
2018-04-29T02:48:41.890Z,88.63
2018-04-29T02:49:42.562Z,88.54
2018-04-29T02:50:43.301Z,88.68
2018-04-29T02:51:43.907Z,88.73
2018-04-29T02:52:44.580Z,88.63
2018-04-29T02:53:45.257Z,88.54
2018-04-29T02:54:45.933Z,88.82
2018-04-29T02:55:46.600Z,88.54
2018-04-29T02:56:47.274Z,88.82
2018-04-29T02:57:47.948Z,88.63
2018-04-29T02:58:48.618Z,88.73
2018-04-29T02:59:49.289Z,89.01
2018-04-29T03:00:49.966Z,88.92
2018-04-29T03:01:50.637Z,88.73
2018-04-29T03:02:51.321Z,88.82
2018-04-29T03:03:51.986Z,88.63
2018-04-29T03:04:52.657Z,89.11
2018-04-29T03:05:53.331Z,89.01
2018-04-29T03:06:54.005Z,89.11
2018-04-29T03:07:54.674Z,89.01
2018-04-29T03:08:55.354Z,88.63
2018-04-29T03:09:56.025Z,89.20
2018-04-29T03:10:56.697Z,89.11
2018-04-29T03:11:57.364Z,89.11
2018-04-29T03:12:58.037Z,88.63
2018-04-29T03:13:58.707Z,89.01
2018-04-29T03:14:59.388Z,89.01
2018-04-29T03:16:00.060Z,89.11
2018-04-29T03:17:00.730Z,89.20
2018-04-29T03:18:01.403Z,89.01
2018-04-29T03:19:02.089Z,89.11
2018-04-29T03:20:02.752Z,89.20
2018-04-29T03:21:03.421Z,89.20
2018-04-29T03:22:04.094Z,89.11
2018-04-29T03:23:04.773Z,88.63
2018-04-29T03:24:05.443Z,88.73
2018-04-29T03:25:06.120Z,88.63
2018-04-29T03:26:06.794Z,89.01
2018-04-29T03:27:07.467Z,88.82
2018-04-29T03:28:08.138Z,89.01
2018-04-29T03:29:08.808Z,88.54
2018-04-29T03:30:09.479Z,88.73
2018-04-29T03:31:10.156Z,88.54
2018-04-29T03:32:10.829Z,89.01
2018-04-29T03:33:11.497Z,89.01
2018-04-29T03:34:12.166Z,89.11
2018-04-29T03:35:12.839Z,89.39
2018-04-29T03:36:13.513Z,89.30
2018-04-29T03:37:14.182Z,89.59
2018-04-29T03:38:14.852Z,89.20
2018-04-29T03:39:15.522Z,89.68
2018-04-29T03:40:16.197Z,89.78
2018-04-29T03:41:16.868Z,89.59
2018-04-29T03:42:17.541Z,89.97
2018-04-29T03:43:18.214Z,89.97
2018-04-29T03:44:18.888Z,89.87
2018-04-29T03:45:19.558Z,89.78
2018-04-29T03:46:20.232Z,90.06
2018-04-29T03:47:20.905Z,89.87
2018-04-29T03:48:21.578Z,89.87
2018-04-29T03:49:22.255Z,90.35
2018-04-29T03:50:22.928Z,89.97
2018-04-29T03:51:23.604Z,90.54
2018-04-29T03:52:24.274Z,90.16
2018-04-29T03:53:24.950Z,90.54
2018-04-29T03:54:25.619Z,91.21
2018-04-29T03:55:26.296Z,90.92
2018-04-29T03:56:26.970Z,91.02
2018-04-29T03:57:27.645Z,90.83
2018-04-29T03:58:28.321Z,90.73
2018-04-29T03:59:28.992Z,90.73
2018-04-29T04:00:29.666Z,90.83
2018-04-29T04:01:30.340Z,90.73
2018-04-29T04:02:31.044Z,90.92
2018-04-29T04:03:31.698Z,91.69
2018-04-29T04:04:32.371Z,91.50
2018-04-29T04:05:33.051Z,91.50
2018-04-29T04:06:33.730Z,91.40
2018-04-29T04:07:34.412Z,91.78
2018-04-29T04:08:35.087Z,91.50
2018-04-29T04:09:35.764Z,91.40
2018-04-29T04:10:36.443Z,91.40
2018-04-29T04:11:37.121Z,91.69
2018-04-29T04:12:37.800Z,91.97
2018-04-29T04:13:38.476Z,91.97
2018-04-29T04:14:39.155Z,92.26
2018-04-29T04:15:39.831Z,92.26
2018-04-29T04:16:40.508Z,92.07
2018-04-29T04:17:41.187Z,92.16
2018-04-29T04:18:41.872Z,92.64
2018-04-29T04:19:42.534Z,92.74
2018-04-29T04:20:43.210Z,92.74
2018-04-29T04:21:43.890Z,92.45
2018-04-29T04:22:44.563Z,92.74
2018-04-29T04:23:45.265Z,93.02
2018-04-29T04:24:45.913Z,93.02
2018-04-29T04:25:46.598Z,93.02
2018-04-29T04:26:47.271Z,93.88
2018-04-29T04:27:47.944Z,93.50
2018-04-29T04:28:48.623Z,93.79
2018-04-29T04:29:49.299Z,93.41
2018-04-29T04:30:49.978Z,93.50
2018-04-29T04:31:50.653Z,93.79
2018-04-29T04:32:51.338Z,93.60
2018-04-29T04:33:52.012Z,94.17
2018-04-29T04:34:52.686Z,94.07
2018-04-29T04:35:53.366Z,94.27
2018-04-29T04:36:54.042Z,94.55
2018-04-29T04:37:54.717Z,94.36
2018-04-29T04:38:55.393Z,94.84
2018-04-29T04:39:56.068Z,94.46
2018-04-29T04:40:56.743Z,94.60
2018-04-29T04:41:57.419Z,94.89
2018-04-29T04:42:58.092Z,94.55
2018-04-29T04:43:58.770Z,94.41
2018-04-29T04:44:59.449Z,94.79
2018-04-29T04:46:00.124Z,94.79
2018-04-29T04:47:00.804Z,94.22
2018-04-29T04:48:01.485Z,94.02
2018-04-29T04:49:02.154Z,93.74
2018-04-29T04:50:02.833Z,93.93
2018-04-29T04:51:03.506Z,93.93
2018-04-29T04:52:04.180Z,93.65
2018-04-29T04:53:04.859Z,93.74
2018-04-29T04:54:05.535Z,93.16
2018-04-29T04:55:06.213Z,92.69
2018-04-29T04:56:06.888Z,92.30
2018-04-29T04:57:07.563Z,92.50
2018-04-29T04:58:08.261Z,93.26
2018-04-29T04:59:08.911Z,93.07
2018-04-29T05:00:09.588Z,93.45
2018-04-29T05:01:10.263Z,93.16
2018-04-29T05:02:10.939Z,93.07
2018-04-29T05:03:11.612Z,93.84
2018-04-29T05:04:12.289Z,93.79
2018-04-29T05:05:12.969Z,93.74
2018-04-29T05:06:13.643Z,93.79
2018-04-29T05:07:14.352Z,93.93
2018-04-29T05:08:15.003Z,93.07
2018-04-29T05:09:15.673Z,92.69
2018-04-29T05:10:16.350Z,92.97
2018-04-29T05:11:17.025Z,93.26
2018-04-29T05:12:17.705Z,93.02
2018-04-29T05:13:18.381Z,92.93
2018-04-29T05:14:19.063Z,93.31
2018-04-29T05:15:19.740Z,93.12
2018-04-29T05:16:20.418Z,93.98
2018-04-29T05:17:21.103Z,93.88
2018-04-29T05:18:21.776Z,93.40
2018-04-29T05:19:22.461Z,93.88
2018-04-29T05:20:23.135Z,93.79
2018-04-29T05:21:23.816Z,93.98
2018-04-29T05:22:24.485Z,93.31
2018-04-29T05:23:25.166Z,92.64
2018-04-29T05:24:25.844Z,93.12
2018-04-29T05:25:26.515Z,92.54
2018-04-29T05:26:27.193Z,92.93
2018-04-29T05:27:27.869Z,92.93
2018-04-29T05:28:28.546Z,92.93
2018-04-29T05:29:29.223Z,92.83
2018-04-29T05:30:29.901Z,92.74
2018-04-29T05:31:30.576Z,93.31
2018-04-29T05:32:31.254Z,93.79
2018-04-29T05:33:31.931Z,93.69
2018-04-29T05:34:32.610Z,93.02
2018-04-29T05:35:33.287Z,93.21
2018-04-29T05:36:33.970Z,93.98
2018-04-29T05:37:34.645Z,93.50
2018-04-29T05:38:35.324Z,92.83
2018-04-29T05:39:36.001Z,92.93
2018-04-29T05:40:36.677Z,92.88
2018-04-29T05:41:37.353Z,92.78
2018-04-29T05:42:38.028Z,92.69
2018-04-29T05:43:38.703Z,92.49
2018-04-29T05:44:39.388Z,92.30
2018-04-29T05:45:40.068Z,92.49
2018-04-29T05:46:40.753Z,92.40
2018-04-29T05:47:41.434Z,91.92
2018-04-29T05:48:42.110Z,92.11
2018-04-29T05:49:42.784Z,92.11
2018-04-29T05:50:43.462Z,92.44
2018-04-29T05:51:44.140Z,92.11
2018-04-29T05:52:44.819Z,92.92
2018-04-29T05:53:45.497Z,92.44
2018-04-29T05:54:46.173Z,92.54
2018-04-29T05:55:46.850Z,92.54
2018-04-29T05:56:47.527Z,92.44
2018-04-29T05:57:48.205Z,91.97
2018-04-29T05:58:48.880Z,91.97
2018-04-29T05:59:49.576Z,91.58
2018-04-29T06:00:50.247Z,91.77
2018-04-29T06:01:50.925Z,91.72
2018-04-29T06:02:51.608Z,91.58
2018-04-29T06:03:52.283Z,91.87
2018-04-29T06:04:52.967Z,91.25
2018-04-29T06:05:53.642Z,91.87
2018-04-29T06:06:54.327Z,91.97
2018-04-29T06:07:55.011Z,91.82
2018-04-29T06:08:55.695Z,91.25
2018-04-29T06:09:56.372Z,91.92
2018-04-29T06:10:57.049Z,91.72
2018-04-29T06:11:57.733Z,91.44
2018-04-29T06:12:58.413Z,91.25
2018-04-29T06:13:59.100Z,91.63
2018-04-29T06:14:59.772Z,91.72
2018-04-29T06:16:00.452Z,91.72
2018-04-29T06:17:01.128Z,92.11
2018-04-29T06:18:01.805Z,91.92
2018-04-29T06:19:02.487Z,91.53
2018-04-29T06:20:03.165Z,91.34
2018-04-29T06:21:03.849Z,91.15
2018-04-29T06:22:04.524Z,91.34
2018-04-29T06:23:05.206Z,91.86
2018-04-29T06:24:05.883Z,91.49
2018-04-29T06:25:06.568Z,91.82
2018-04-29T06:26:07.271Z,91.92
2018-04-29T06:27:07.916Z,91.77
2018-04-29T06:28:08.599Z,91.86
2018-04-29T06:29:09.279Z,92.06
2018-04-29T06:30:09.957Z,91.72
2018-04-29T06:31:10.640Z,91.86
2018-04-29T06:32:11.320Z,91.96
2018-04-29T06:33:11.999Z,91.53
2018-04-29T06:34:12.677Z,92.35
2018-04-29T06:35:13.354Z,91.77
2018-04-29T06:36:14.031Z,91.77
2018-04-29T06:37:14.716Z,91.39
2018-04-29T06:38:15.394Z,90.77
2018-04-29T06:39:16.074Z,91.10
2018-04-29T06:40:16.755Z,90.96
2018-04-29T06:41:17.437Z,91.39
2018-04-29T06:42:18.112Z,91.49
2018-04-29T06:43:18.787Z,91.49
2018-04-29T06:44:19.464Z,91.39
2018-04-29T06:45:20.147Z,91.19
2018-04-29T06:46:20.824Z,91.49
2018-04-29T06:47:21.504Z,91.49
2018-04-29T06:48:22.180Z,91.96
2018-04-29T06:49:22.857Z,91.77
2018-04-29T06:50:23.531Z,91.67
2018-04-29T06:51:24.222Z,91.39
2018-04-29T06:52:24.898Z,91.10
2018-04-29T06:53:25.600Z,90.81
2018-04-29T06:54:26.259Z,91.19
2018-04-29T06:55:26.951Z,91.19
2018-04-29T06:56:27.636Z,90.81
2018-04-29T06:57:28.318Z,91.19
2018-04-29T06:58:28.993Z,91.39
2018-04-29T06:59:29.670Z,90.43
2018-04-29T07:00:30.347Z,89.95
2018-04-29T07:01:31.023Z,90.14
2018-04-29T07:02:31.712Z,89.47
2018-04-29T07:03:32.398Z,89.95
2018-04-29T07:04:33.079Z,89.95
2018-04-29T07:05:33.757Z,90.23
2018-04-29T07:06:34.437Z,90.72
2018-04-29T07:07:35.116Z,90.53
2018-04-29T07:08:35.793Z,89.86
2018-04-29T07:09:36.475Z,89.95
2018-04-29T07:10:37.151Z,90.33
2018-04-29T07:11:37.829Z,90.47
2018-04-29T07:12:38.510Z,90.43
2018-04-29T07:13:39.185Z,91.00
2018-04-29T07:14:39.859Z,91.34
2018-04-29T07:15:40.548Z,91.14
2018-04-29T07:16:41.225Z,90.57
2018-04-29T07:17:42.005Z,90.19
2018-04-29T07:18:42.689Z,90.86
2018-04-29T07:19:43.371Z,90.76
2018-04-29T07:20:44.053Z,90.67
2018-04-29T07:21:44.735Z,90.00
2018-04-29T07:22:45.414Z,90.19
2018-04-29T07:23:46.101Z,91.24
2018-04-29T07:24:46.780Z,90.67
2018-04-29T07:25:47.462Z,90.57
2018-04-29T07:26:48.141Z,90.19
2018-04-29T07:27:48.829Z,90.38
2018-04-29T07:28:49.507Z,90.76
2018-04-29T07:29:50.188Z,91.24
2018-04-29T07:30:50.873Z,91.38
2018-04-29T07:31:51.554Z,90.81
2018-04-29T07:32:52.234Z,91.00
2018-04-29T07:33:52.926Z,90.23
2018-04-29T07:34:53.617Z,89.85
2018-04-29T07:35:54.296Z,90.52
2018-04-29T07:36:54.980Z,89.61
2018-04-29T07:37:55.657Z,89.90
2018-04-29T07:38:56.337Z,90.38
2018-04-29T07:39:57.070Z,90.04
2018-04-29T07:40:57.694Z,89.47
2018-04-29T07:41:58.383Z,89.08
2018-04-29T07:42:59.063Z,89.08
2018-04-29T07:43:59.737Z,89.18
2018-04-29T07:45:00.370Z,90.14
2018-04-29T07:46:01.111Z,89.37
2018-04-29T07:47:01.792Z,89.18
2018-04-29T07:48:02.469Z,89.47
2018-04-29T07:49:03.145Z,88.98
2018-04-29T07:50:03.829Z,88.89
2018-04-29T07:51:04.511Z,88.89
2018-04-29T07:52:05.228Z,88.26
2018-04-29T07:53:05.876Z,88.84
2018-04-29T07:54:06.558Z,88.45
2018-04-29T07:55:07.236Z,88.26
2018-04-29T07:56:07.920Z,88.07
2018-04-29T07:57:08.610Z,88.74
2018-04-29T07:58:09.289Z,88.35
2018-04-29T07:59:09.971Z,87.88
2018-04-29T08:00:10.653Z,87.49
2018-04-29T08:01:11.333Z,88.07
2018-04-29T08:02:12.012Z,88.79
2018-04-29T08:03:12.708Z,87.78
2018-04-29T08:04:13.385Z,87.59
2018-04-29T08:05:14.067Z,87.40
2018-04-29T08:06:14.748Z,87.40
2018-04-29T08:07:15.437Z,87.49
2018-04-29T08:08:16.115Z,87.59
2018-04-29T08:09:16.804Z,87.15
2018-04-29T08:10:17.487Z,86.96
2018-04-29T08:11:18.176Z,87.82
2018-04-29T08:12:18.855Z,87.25
2018-04-29T08:13:19.539Z,85.71
2018-04-29T08:14:20.219Z,85.14
2018-04-29T08:15:20.971Z,85.19
2018-04-29T08:16:21.589Z,85.19
2018-04-29T08:17:22.267Z,84.85
2018-04-29T08:18:22.945Z,85.81
2018-04-29T08:19:23.624Z,85.42
2018-04-29T08:20:24.305Z,85.52
2018-04-29T08:21:24.987Z,85.81
2018-04-29T08:22:25.671Z,85.91
2018-04-29T08:23:26.349Z,84.75
2018-04-29T08:24:27.026Z,84.66
2018-04-29T08:25:27.708Z,84.95
2018-04-29T08:26:28.398Z,84.66
2018-04-29T08:27:29.089Z,84.60
2018-04-29T08:28:29.754Z,85.18
2018-04-29T08:29:30.432Z,84.60
2018-04-29T08:30:31.111Z,84.70
2018-04-29T08:31:31.799Z,84.03
2018-04-29T08:32:32.473Z,83.84
2018-04-29T08:33:33.153Z,84.31
2018-04-29T08:34:33.844Z,84.03
2018-04-29T08:35:34.541Z,84.41
2018-04-29T08:36:35.226Z,84.22
2018-04-29T08:37:35.907Z,84.41
2018-04-29T08:38:36.592Z,84.26
2018-04-29T08:39:37.278Z,83.78
2018-04-29T08:40:37.957Z,83.78
2018-04-29T08:41:38.636Z,83.11
2018-04-29T08:42:39.325Z,83.49
2018-04-29T08:43:40.003Z,83.40
2018-04-29T08:44:40.690Z,83.87
2018-04-29T08:45:41.375Z,83.30
2018-04-29T08:46:42.056Z,83.20
2018-04-29T08:47:42.736Z,83.20
2018-04-29T08:48:43.415Z,82.92
2018-04-29T08:49:44.103Z,83.11
2018-04-29T08:50:44.787Z,83.69
2018-04-29T08:51:45.466Z,83.20
2018-04-29T08:52:46.148Z,83.40
2018-04-29T08:53:46.848Z,82.86
2018-04-29T08:54:47.526Z,81.90
2018-04-29T08:55:48.214Z,81.52
2018-04-29T08:56:48.898Z,81.71
2018-04-29T08:57:49.579Z,81.23
2018-04-29T08:58:50.263Z,81.23
2018-04-29T08:59:50.941Z,81.23
2018-04-29T09:00:51.625Z,80.46
2018-04-29T09:01:52.305Z,80.94
2018-04-29T09:02:52.990Z,80.75
2018-04-29T09:03:53.775Z,81.42
2018-04-29T09:04:54.353Z,82.29
2018-04-29T09:05:55.041Z,80.50
2018-04-29T09:06:55.720Z,81.56
2018-04-29T09:07:56.403Z,81.56
2018-04-29T09:08:57.092Z,80.79
2018-04-29T09:09:57.773Z,80.11
2018-04-29T09:10:58.454Z,80.40
2018-04-29T09:11:59.136Z,80.40
2018-04-29T09:12:59.811Z,79.82
2018-04-29T09:14:00.500Z,80.40
2018-04-29T09:15:01.185Z,80.79
2018-04-29T09:16:01.867Z,80.83
2018-04-29T09:17:02.541Z,80.25
2018-04-29T09:18:03.231Z,79.58
2018-04-29T09:19:03.908Z,79.96
2018-04-29T09:20:04.591Z,79.77
2018-04-29T09:21:05.273Z,78.81
2018-04-29T09:22:05.956Z,79.00
2018-04-29T09:23:06.637Z,79.67
2018-04-29T09:24:07.317Z,79.67
2018-04-29T09:25:08.007Z,79.00
2018-04-29T09:26:08.684Z,77.94
2018-04-29T09:27:09.379Z,77.65
2018-04-29T09:28:10.060Z,78.13
2018-04-29T09:29:10.740Z,77.84
2018-04-29T09:30:11.423Z,78.65
2018-04-29T09:31:12.124Z,78.03
2018-04-29T09:32:12.803Z,78.23
2018-04-29T09:33:13.482Z,78.27
2018-04-29T09:34:14.163Z,79.13
2018-04-29T09:35:14.860Z,78.27
2018-04-29T09:36:15.541Z,77.69
2018-04-29T09:37:16.256Z,77.59
2018-04-29T09:38:16.907Z,78.08
2018-04-29T09:39:17.581Z,78.88
2018-04-29T09:40:18.260Z,78.02
2018-04-29T09:41:18.944Z,76.73
2018-04-29T09:42:19.629Z,77.92
2018-04-29T09:43:20.315Z,77.63
2018-04-29T09:44:21.003Z,77.73
2018-04-29T09:45:21.689Z,78.59
2018-04-29T09:46:22.368Z,78.11
2018-04-29T09:47:23.059Z,78.21
2018-04-29T09:48:23.736Z,76.86
2018-04-29T09:49:24.423Z,77.25
2018-04-29T09:50:25.106Z,77.15
2018-04-29T09:51:25.789Z,77.15
2018-04-29T09:52:26.470Z,77.44
2018-04-29T09:53:27.157Z,77.67
2018-04-29T09:54:27.833Z,77.00
2018-04-29T09:55:28.517Z,78.06
2018-04-29T09:56:29.199Z,77.00
2018-04-29T09:57:29.892Z,76.42
2018-04-29T09:58:30.571Z,76.71
2018-04-29T09:59:31.263Z,76.51
2018-04-29T10:00:31.947Z,75.45
2018-04-29T10:01:32.636Z,75.65
2018-04-29T10:02:33.323Z,75.55
2018-04-29T10:03:34.010Z,75.84
2018-04-29T10:04:34.719Z,75.88
2018-04-29T10:05:35.413Z,76.03
2018-04-29T10:06:36.100Z,76.42
2018-04-29T10:07:36.791Z,76.26
2018-04-29T10:08:37.481Z,75.68
2018-04-29T10:09:38.184Z,75.40
2018-04-29T10:10:38.838Z,75.40
2018-04-29T10:11:39.520Z,75.49
2018-04-29T10:12:40.210Z,75.01
2018-04-29T10:13:40.891Z,75.68
2018-04-29T10:14:41.573Z,75.78
2018-04-29T10:15:42.291Z,75.14
2018-04-29T10:16:42.971Z,75.62
2018-04-29T10:17:43.652Z,75.24
2018-04-29T10:18:44.377Z,74.47
2018-04-29T10:19:45.018Z,73.99
2018-04-29T10:20:45.709Z,74.08
2018-04-29T10:21:46.395Z,74.18
2018-04-29T10:22:47.098Z,74.76
2018-04-29T10:23:47.793Z,75.82
2018-04-29T10:24:48.481Z,75.24
2018-04-29T10:25:49.180Z,74.37
2018-04-29T10:26:49.859Z,75.14
2018-04-29T10:27:50.549Z,74.79
2018-04-29T10:28:51.231Z,74.99
2018-04-29T10:29:51.913Z,74.60
2018-04-29T10:30:52.594Z,75.27
2018-04-29T10:31:53.276Z,75.18
2018-04-29T10:32:53.983Z,74.51
2018-04-29T10:33:54.652Z,73.93
2018-04-29T10:34:55.341Z,74.73
2018-04-29T10:35:56.029Z,74.64
2018-04-29T10:36:56.725Z,74.35
2018-04-29T10:37:57.414Z,73.28
2018-04-29T10:38:58.110Z,73.48
2018-04-29T10:39:58.791Z,73.77
2018-04-29T10:40:59.499Z,72.80
2018-04-29T10:42:00.160Z,71.94
2018-04-29T10:43:00.841Z,72.90
2018-04-29T10:44:01.533Z,72.90
2018-04-29T10:45:02.261Z,72.52
2018-04-29T10:46:03.013Z,71.94
2018-04-29T10:47:03.696Z,71.00
2018-04-29T10:48:04.388Z,71.39
2018-04-29T10:49:05.069Z,70.90
2018-04-29T10:50:05.755Z,71.20
2018-04-29T10:51:06.455Z,70.04
2018-04-29T10:52:07.148Z,70.23
2018-04-29T10:53:07.841Z,71.20
2018-04-29T10:54:08.536Z,69.94
2018-04-29T10:55:09.213Z,70.42
2018-04-29T10:56:09.895Z,69.56
2018-04-29T10:57:10.576Z,70.52
2018-04-29T10:58:11.255Z,69.49
2018-04-29T10:59:11.938Z,69.26
2018-04-29T11:00:12.622Z,69.40
2018-04-29T11:01:13.304Z,68.62
2018-04-29T11:02:13.979Z,68.33
2018-04-29T11:03:14.666Z,68.72
2018-04-29T11:04:15.354Z,68.75
2018-04-29T11:05:16.041Z,67.27
2018-04-29T11:06:16.722Z,68.56
2018-04-29T11:07:17.405Z,68.66
2018-04-29T11:08:18.090Z,69.24
2018-04-29T11:09:18.772Z,68.08
2018-04-29T11:10:19.455Z,67.79
2018-04-29T11:11:20.143Z,67.98
2018-04-29T11:12:20.825Z,67.72
2018-04-29T11:13:21.507Z,67.33
2018-04-29T11:14:22.199Z,68.40
2018-04-29T11:15:22.888Z,67.63
2018-04-29T11:16:23.638Z,67.24
2018-04-29T11:17:24.256Z,66.95
2018-04-29T11:18:24.937Z,67.14
2018-04-29T11:19:25.638Z,67.05
2018-04-29T11:20:26.324Z,68.43
2018-04-29T11:21:27.003Z,67.56
2018-04-29T11:22:27.698Z,66.69
2018-04-29T11:23:28.371Z,66.60
2018-04-29T11:24:29.050Z,66.20
2018-04-29T11:25:29.744Z,66.30
2018-04-29T11:26:30.438Z,66.30
2018-04-29T11:27:31.118Z,65.66
2018-04-29T11:28:31.808Z,64.98
2018-04-29T11:29:32.491Z,64.40
2018-04-29T11:30:33.179Z,64.69
2018-04-29T11:31:33.871Z,64.14
2018-04-29T11:32:34.563Z,63.40
2018-04-29T11:33:35.253Z,62.01
2018-04-29T11:34:35.962Z,58.11
2018-04-29T11:35:37.377Z,55.76
2018-04-29T11:36:38.062Z,54.33
2018-04-29T11:37:38.750Z,52.75
2018-04-29T11:38:39.435Z,50.42
2018-04-29T11:39:40.132Z,48.60
2018-04-29T11:40:41.368Z,47.06
2018-04-29T11:41:42.050Z,45.25
2018-04-29T11:42:42.734Z,43.55
2018-04-29T11:43:43.444Z,42.74
2018-04-29T11:44:44.134Z,43.15
2018-04-29T11:45:44.822Z,43.10
2018-04-29T11:46:45.512Z,42.18
2018-04-29T11:47:46.208Z,41.72
2018-04-29T11:48:46.923Z,41.82
2018-04-29T11:49:47.620Z,42.27
2018-04-29T11:50:48.316Z,41.16
2018-04-29T11:51:49.001Z,40.17
2018-04-29T11:52:49.687Z,40.35
2018-04-29T11:53:50.374Z,40.84
2018-04-29T11:54:51.063Z,40.29
2018-04-29T11:55:51.750Z,39.94
2018-04-29T11:56:52.512Z,37.53
2018-04-29T11:57:53.126Z,36.63
2018-04-29T11:58:53.813Z,38.09
2018-04-29T11:59:54.503Z,39.29
2018-04-29T12:00:55.187Z,39.03
2018-04-29T12:01:55.942Z,39.39
2018-04-29T12:02:56.570Z,38.13
2018-04-29T12:03:57.264Z,39.45
2018-04-29T12:04:57.943Z,39.23
2018-04-29T12:05:58.635Z,38.90
2018-04-29T12:06:59.326Z,38.90
2018-04-29T12:08:00.026Z,38.70
2018-04-29T12:09:00.715Z,38.78
2018-04-29T12:10:01.405Z,40.29
2018-04-29T12:11:02.091Z,41.45
2018-04-29T12:12:02.778Z,42.37
2018-04-29T12:13:03.475Z,41.84
2018-04-29T12:14:04.157Z,43.05
2018-04-29T12:15:04.841Z,43.05
2018-04-29T12:16:05.527Z,43.56
2018-04-29T12:17:06.209Z,42.58
2018-04-29T12:18:06.898Z,42.68
2018-04-29T12:19:07.581Z,41.99
2018-04-29T12:20:08.267Z,42.33
2018-04-29T12:21:08.957Z,41.08
2018-04-29T12:22:09.655Z,40.61
2018-04-29T12:23:10.332Z,40.58
2018-04-29T12:24:11.020Z,41.19
2018-04-29T12:25:11.706Z,39.33
2018-04-29T12:26:12.406Z,39.51
2018-04-29T12:27:13.098Z,40.16
2018-04-29T12:28:13.794Z,40.06
2018-04-29T12:29:14.493Z,39.90
2018-04-29T12:30:15.191Z,39.43
2018-04-29T12:31:15.875Z,39.09
2018-04-29T12:32:16.560Z,39.29
2018-04-29T12:33:17.242Z,39.37
2018-04-29T12:34:17.935Z,39.98
2018-04-29T12:35:18.616Z,38.68
2018-04-29T12:36:19.302Z,38.41
2018-04-29T12:37:20.004Z,38.68
2018-04-29T12:38:20.715Z,38.60
2018-04-29T12:39:21.400Z,37.92
2018-04-29T12:40:22.084Z,38.60
2018-04-29T12:41:22.771Z,37.92
2018-04-29T12:42:23.461Z,39.39
2018-04-29T12:43:24.145Z,40.08
2018-04-29T12:44:24.832Z,38.94
2018-04-29T12:45:25.525Z,40.11
2018-04-29T12:46:26.263Z,40.92
2018-04-29T12:47:26.951Z,39.14
2018-04-29T12:48:27.638Z,38.55
2018-04-29T12:49:28.323Z,38.45
2018-04-29T12:50:29.010Z,37.81
2018-04-29T12:51:29.693Z,38.67
2018-04-29T12:52:30.383Z,37.21
2018-04-29T12:53:31.074Z,36.35
2018-04-29T12:54:31.764Z,35.83
2018-04-29T12:55:32.450Z,35.85
2018-04-29T12:56:33.137Z,37.12
2018-04-29T12:57:33.822Z,37.04
2018-04-29T12:58:34.508Z,36.16
2018-04-29T12:59:35.201Z,36.45
2018-04-29T13:00:35.888Z,36.84
2018-04-29T13:01:36.586Z,37.21